sensor_id;sensor_type;location;lat;lon;timestamp;pressure;altitude;pressure_sealevel;temperature;humidity
35489;BME280;21602;55.670;37.578;2022-09-02T00:00:42;98656.41;;;8.68;80.78
35489;BME280;21602;55.670;37.578;2022-09-02T00:03:08;98666.16;;;8.62;80.89
35489;BME280;21602;55.670;37.578;2022-09-02T00:05:34;98662.34;;;8.58;80.94
35489;BME280;21602;55.670;37.578;2022-09-02T00:07:59;98661.53;;;8.58;80.66
35489;BME280;21602;55.670;37.578;2022-09-02T00:10:25;98663.66;;;8.56;80.74
35489;BME280;21602;55.670;37.578;2022-09-02T00:12:51;98667.66;;;8.58;80.58
35489;BME280;21602;55.670;37.578;2022-09-02T00:15:17;98661.63;;;8.63;80.21
35489;BME280;21602;55.670;37.578;2022-09-02T00:17:43;98669.41;;;8.64;79.80
35489;BME280;21602;55.670;37.578;2022-09-02T00:20:09;98657.03;;;8.58;79.77
35489;BME280;21602;55.670;37.578;2022-09-02T00:22:34;98674.63;;;8.59;79.62
35489;BME280;21602;55.670;37.578;2022-09-02T00:25:00;98667.47;;;8.60;80.08
35489;BME280;21602;55.670;37.578;2022-09-02T00:27:26;98665.91;;;8.64;79.53
35489;BME280;21602;55.670;37.578;2022-09-02T00:29:52;98672.63;;;8.66;79.76
35489;BME280;21602;55.670;37.578;2022-09-02T00:32:18;98669.16;;;8.66;79.77
35489;BME280;21602;55.670;37.578;2022-09-02T00:34:44;98663.69;;;8.72;79.51
35489;BME280;21602;55.670;37.578;2022-09-02T00:37:10;98655.47;;;8.74;79.48
35489;BME280;21602;55.670;37.578;2022-09-02T00:39:37;98634.41;;;8.72;79.92
35489;BME280;21602;55.670;37.578;2022-09-02T00:42:03;98657.56;;;8.72;79.55
35489;BME280;21602;55.670;37.578;2022-09-02T00:44:31;98661.38;;;8.76;79.55
35489;BME280;21602;55.670;37.578;2022-09-02T00:46:59;98670.41;;;8.75;79.41
35489;BME280;21602;55.670;37.578;2022-09-02T00:49:28;98661.63;;;8.63;78.92
35489;BME280;21602;55.670;37.578;2022-09-02T00:52:04;98669.63;;;8.63;79.15
35489;BME280;21602;55.670;37.578;2022-09-02T00:54:35;98662.69;;;8.62;78.78
35489;BME280;21602;55.670;37.578;2022-09-02T00:57:07;98666.25;;;8.67;78.77
35489;BME280;21602;55.670;37.578;2022-09-02T01:02:19;98667.97;;;8.74;78.71
35489;BME280;21602;55.670;37.578;2022-09-02T01:04:48;98674.19;;;8.79;78.38
35489;BME280;21602;55.670;37.578;2022-09-02T01:07:14;98665.72;;;8.82;78.57
35489;BME280;21602;55.670;37.578;2022-09-02T01:09:40;98666.31;;;8.84;78.70
35489;BME280;21602;55.670;37.578;2022-09-02T01:12:06;98657.28;;;8.85;78.70
35489;BME280;21602;55.670;37.578;2022-09-02T01:14:33;98654.78;;;8.79;79.17
35489;BME280;21602;55.670;37.578;2022-09-02T01:17:01;98660.31;;;8.77;79.18
35489;BME280;21602;55.670;37.578;2022-09-02T01:19:37;98656.41;;;8.68;80.60
35489;BME280;21602;55.670;37.578;2022-09-02T01:22:25;98653.19;;;8.66;80.37
35489;BME280;21602;55.670;37.578;2022-09-02T01:24:52;98661.88;;;8.61;80.59
35489;BME280;21602;55.670;37.578;2022-09-02T01:27:21;98659.22;;;8.61;81.41
35489;BME280;21602;55.670;37.578;2022-09-02T01:29:58;98655.59;;;8.67;81.97
35489;BME280;21602;55.670;37.578;2022-09-02T01:32:26;98663.59;;;8.67;81.79
35489;BME280;21602;55.670;37.578;2022-09-02T01:34:52;98671.47;;;8.62;82.80
35489;BME280;21602;55.670;37.578;2022-09-02T01:37:19;98661.44;;;8.53;83.10
35489;BME280;21602;55.670;37.578;2022-09-02T01:39:45;98669.59;;;8.46;85.00
35489;BME280;21602;55.670;37.578;2022-09-02T01:42:12;98679.63;;;8.44;84.40
35489;BME280;21602;55.670;37.578;2022-09-02T01:44:40;98672.22;;;8.34;86.30
35489;BME280;21602;55.670;37.578;2022-09-02T01:47:14;98687.53;;;8.15;86.76
35489;BME280;21602;55.670;37.578;2022-09-02T01:49:40;98680.84;;;8.01;86.18
35489;BME280;21602;55.670;37.578;2022-09-02T01:52:06;98684.09;;;7.91;86.69
35489;BME280;21602;55.670;37.578;2022-09-02T01:54:32;98685.03;;;7.85;86.81
35489;BME280;21602;55.670;37.578;2022-09-02T01:56:58;98685.72;;;7.81;85.78
35489;BME280;21602;55.670;37.578;2022-09-02T01:59:24;98679.94;;;7.72;86.58
35489;BME280;21602;55.670;37.578;2022-09-02T02:01:51;98691.84;;;7.69;86.21
35489;BME280;21602;55.670;37.578;2022-09-02T02:04:18;98688.16;;;7.70;86.91
35489;BME280;21602;55.670;37.578;2022-09-02T02:06:46;98692.78;;;7.75;86.22
35489;BME280;21602;55.670;37.578;2022-09-02T02:09:13;98697.38;;;7.80;86.34
35489;BME280;21602;55.670;37.578;2022-09-02T02:11:43;98696.09;;;7.82;85.87
35489;BME280;21602;55.670;37.578;2022-09-02T02:14:10;98697.84;;;7.77;86.24
35489;BME280;21602;55.670;37.578;2022-09-02T02:16:36;98698.19;;;7.80;86.53
35489;BME280;21602;55.670;37.578;2022-09-02T02:19:03;98703.88;;;7.84;86.25
35489;BME280;21602;55.670;37.578;2022-09-02T02:21:29;98701.78;;;7.86;86.24
35489;BME280;21602;55.670;37.578;2022-09-02T02:23:56;98712.41;;;7.86;86.81
35489;BME280;21602;55.670;37.578;2022-09-02T02:26:22;98707.53;;;7.83;86.78
35489;BME280;21602;55.670;37.578;2022-09-02T02:28:48;98700.41;;;7.83;86.63
35489;BME280;21602;55.670;37.578;2022-09-02T02:31:14;98700.97;;;7.85;86.72
35489;BME280;21602;55.670;37.578;2022-09-02T02:33:40;98699.69;;;7.88;86.65
35489;BME280;21602;55.670;37.578;2022-09-02T02:36:06;98699.69;;;7.88;86.25
35489;BME280;21602;55.670;37.578;2022-09-02T02:38:34;98695.41;;;7.87;85.89
35489;BME280;21602;55.670;37.578;2022-09-02T02:41:01;98698.41;;;7.90;86.14
35489;BME280;21602;55.670;37.578;2022-09-02T02:43:32;98700.03;;;7.91;85.39
35489;BME280;21602;55.670;37.578;2022-09-02T02:45:58;98707.78;;;7.93;85.83
35489;BME280;21602;55.670;37.578;2022-09-02T02:48:25;98712.28;;;7.92;85.94
35489;BME280;21602;55.670;37.578;2022-09-02T02:50:51;98718.44;;;7.93;85.69
35489;BME280;21602;55.670;37.578;2022-09-02T02:53:17;98713.91;;;7.93;85.28
35489;BME280;21602;55.670;37.578;2022-09-02T02:55:44;98709.75;;;7.98;85.34
35489;BME280;21602;55.670;37.578;2022-09-02T02:58:11;98717.13;;;7.95;85.13
35489;BME280;21602;55.670;37.578;2022-09-02T03:00:38;98719.00;;;7.95;85.33
35489;BME280;21602;55.670;37.578;2022-09-02T03:03:08;98723.63;;;8.00;85.26
35489;BME280;21602;55.670;37.578;2022-09-02T03:05:37;98726.63;;;8.03;85.30
35489;BME280;21602;55.670;37.578;2022-09-02T03:08:05;98718.16;;;8.06;84.95
35489;BME280;21602;55.670;37.578;2022-09-02T03:10:32;98724.19;;;8.13;84.87
35489;BME280;21602;55.670;37.578;2022-09-02T03:12:59;98731.69;;;8.16;84.61
35489;BME280;21602;55.670;37.578;2022-09-02T03:15:26;98735.50;;;8.20;84.32
35489;BME280;21602;55.670;37.578;2022-09-02T03:17:54;98742.66;;;8.20;84.10
35489;BME280;21602;55.670;37.578;2022-09-02T03:20:21;98733.44;;;8.23;83.78
35489;BME280;21602;55.670;37.578;2022-09-02T03:22:53;98734.69;;;8.20;83.85
35489;BME280;21602;55.670;37.578;2022-09-02T03:25:20;98735.03;;;8.24;83.38
35489;BME280;21602;55.670;37.578;2022-09-02T03:27:47;98728.22;;;8.16;82.51
35489;BME280;21602;55.670;37.578;2022-09-02T03:30:18;98734.78;;;8.25;83.03
35489;BME280;21602;55.670;37.578;2022-09-02T03:32:44;98734.44;;;8.33;83.01
35489;BME280;21602;55.670;37.578;2022-09-02T03:35:15;98741.75;;;8.38;83.09
35489;BME280;21602;55.670;37.578;2022-09-02T03:37:41;98733.31;;;8.41;82.39
35489;BME280;21602;55.670;37.578;2022-09-02T03:40:10;98739.19;;;8.43;82.15
35489;BME280;21602;55.670;37.578;2022-09-02T03:42:37;98746.03;;;8.39;81.54
35489;BME280;21602;55.670;37.578;2022-09-02T03:45:06;98738.03;;;8.39;81.57
35489;BME280;21602;55.670;37.578;2022-09-02T03:47:34;98751.44;;;8.44;81.91
35489;BME280;21602;55.670;37.578;2022-09-02T03:50:02;98747.53;;;8.46;81.61
35489;BME280;21602;55.670;37.578;2022-09-02T03:52:28;98740.22;;;8.54;81.32
35489;BME280;21602;55.670;37.578;2022-09-02T03:54:54;98753.97;;;8.62;81.60
35489;BME280;21602;55.670;37.578;2022-09-02T03:57:21;98758.34;;;8.68;80.95
35489;BME280;21602;55.670;37.578;2022-09-02T03:59:51;98756.00;;;8.72;79.77
35489;BME280;21602;55.670;37.578;2022-09-02T04:02:16;98760.63;;;8.77;80.13
35489;BME280;21602;55.670;37.578;2022-09-02T04:04:44;98760.38;;;8.78;78.27
35489;BME280;21602;55.670;37.578;2022-09-02T04:07:10;98767.09;;;8.81;78.62
35489;BME280;21602;55.670;37.578;2022-09-02T04:09:36;98762.13;;;8.84;78.76
35489;BME280;21602;55.670;37.578;2022-09-02T04:12:03;98773.56;;;8.85;78.51
35489;BME280;21602;55.670;37.578;2022-09-02T04:14:30;98768.81;;;8.87;78.29
35489;BME280;21602;55.670;37.578;2022-09-02T04:16:56;98777.16;;;8.90;78.19
35489;BME280;21602;55.670;37.578;2022-09-02T04:19:22;98774.81;;;8.94;78.34
35489;BME280;21602;55.670;37.578;2022-09-02T04:21:48;98770.66;;;8.98;77.60
35489;BME280;21602;55.670;37.578;2022-09-02T04:24:14;98780.78;;;9.13;78.40
35489;BME280;21602;55.670;37.578;2022-09-02T04:26:44;98769.59;;;8.99;76.36
35489;BME280;21602;55.670;37.578;2022-09-02T04:29:10;98774.47;;;9.02;77.37
35489;BME280;21602;55.670;37.578;2022-09-02T04:31:36;98779.03;;;9.07;77.21
35489;BME280;21602;55.670;37.578;2022-09-02T04:34:03;98779.16;;;9.12;77.53
35489;BME280;21602;55.670;37.578;2022-09-02T04:36:30;98777.44;;;9.06;76.95
35489;BME280;21602;55.670;37.578;2022-09-02T04:38:57;98770.06;;;8.96;76.93
35489;BME280;21602;55.670;37.578;2022-09-02T04:41:29;98781.38;;;9.03;77.01
35489;BME280;21602;55.670;37.578;2022-09-02T04:43:58;98780.69;;;9.08;76.62
35489;BME280;21602;55.670;37.578;2022-09-02T04:46:27;98785.84;;;9.14;76.85
35489;BME280;21602;55.670;37.578;2022-09-02T04:48:54;98782.72;;;9.17;76.47
35489;BME280;21602;55.670;37.578;2022-09-02T04:51:24;98796.50;;;9.14;76.94
35489;BME280;21602;55.670;37.578;2022-09-02T04:53:54;98789.81;;;9.12;77.17
35489;BME280;21602;55.670;37.578;2022-09-02T04:56:26;98781.91;;;9.17;76.67
35489;BME280;21602;55.670;37.578;2022-09-02T04:58:52;98789.31;;;9.15;77.13
35489;BME280;21602;55.670;37.578;2022-09-02T05:01:25;98782.53;;;9.07;77.30
35489;BME280;21602;55.670;37.578;2022-09-02T05:03:54;98796.06;;;9.06;77.45
35489;BME280;21602;55.670;37.578;2022-09-02T05:06:25;98792.50;;;9.00;78.22
35489;BME280;21602;55.670;37.578;2022-09-02T05:08:55;98797.06;;;8.88;79.24
35489;BME280;21602;55.670;37.578;2022-09-02T05:11:23;98808.53;;;8.88;79.73
35489;BME280;21602;55.670;37.578;2022-09-02T05:13:56;98799.72;;;8.88;79.67
35489;BME280;21602;55.670;37.578;2022-09-02T05:16:29;98796.22;;;8.99;79.39
35489;BME280;21602;55.670;37.578;2022-09-02T05:18:57;98798.81;;;9.11;79.47
35489;BME280;21602;55.670;37.578;2022-09-02T05:21:26;98816.28;;;9.18;79.04
35489;BME280;21602;55.670;37.578;2022-09-02T05:23:53;98803.53;;;9.20;78.92
35489;BME280;21602;55.670;37.578;2022-09-02T05:26:20;98805.41;;;9.20;79.58
35489;BME280;21602;55.670;37.578;2022-09-02T05:28:48;98809.44;;;9.22;78.91
35489;BME280;21602;55.670;37.578;2022-09-02T05:31:15;98833.06;;;9.19;79.52
35489;BME280;21602;55.670;37.578;2022-09-02T05:33:42;98827.41;;;9.15;79.48
35489;BME280;21602;55.670;37.578;2022-09-02T05:36:13;98817.97;;;8.96;78.58
35489;BME280;21602;55.670;37.578;2022-09-02T05:38:40;98832.44;;;9.00;79.19
35489;BME280;21602;55.670;37.578;2022-09-02T05:41:12;98834.41;;;9.05;78.87
35489;BME280;21602;55.670;37.578;2022-09-02T05:43:40;98834.47;;;9.21;78.80
35489;BME280;21602;55.670;37.578;2022-09-02T05:46:11;98835.50;;;9.49;78.32
35489;BME280;21602;55.670;37.578;2022-09-02T05:48:38;98829.94;;;9.51;76.69
35489;BME280;21602;55.670;37.578;2022-09-02T05:51:23;98844.78;;;9.46;76.33
35489;BME280;21602;55.670;37.578;2022-09-02T05:53:53;98842.56;;;9.55;76.68
35489;BME280;21602;55.670;37.578;2022-09-02T05:56:20;98853.13;;;9.50;74.76
35489;BME280;21602;55.670;37.578;2022-09-02T05:58:46;98840.03;;;9.48;76.80
35489;BME280;21602;55.670;37.578;2022-09-02T06:01:13;98850.06;;;9.58;76.41
35489;BME280;21602;55.670;37.578;2022-09-02T06:03:40;98843.38;;;9.56;73.94
35489;BME280;21602;55.670;37.578;2022-09-02T06:06:07;98847.56;;;9.68;74.37
35489;BME280;21602;55.670;37.578;2022-09-02T06:08:37;98852.59;;;9.82;74.56
35489;BME280;21602;55.670;37.578;2022-09-02T06:11:07;98846.50;;;9.98;73.41
35489;BME280;21602;55.670;37.578;2022-09-02T06:13:35;98854.06;;;10.06;72.59
35489;BME280;21602;55.670;37.578;2022-09-02T06:16:03;98870.06;;;10.06;72.27
35489;BME280;21602;55.670;37.578;2022-09-02T06:18:30;98865.38;;;9.96;72.73
35489;BME280;21602;55.670;37.578;2022-09-02T06:20:56;98861.81;;;9.91;72.89
35489;BME280;21602;55.670;37.578;2022-09-02T06:23:27;98857.31;;;9.91;73.29
35489;BME280;21602;55.670;37.578;2022-09-02T06:25:52;98858.59;;;10.06;72.93
35489;BME280;21602;55.670;37.578;2022-09-02T06:28:19;98884.53;;;10.10;71.98
35489;BME280;21602;55.670;37.578;2022-09-02T06:30:46;98875.41;;;10.06;73.03
35489;BME280;21602;55.670;37.578;2022-09-02T06:33:19;98887.63;;;10.02;72.86
35489;BME280;21602;55.670;37.578;2022-09-02T06:35:47;98887.16;;;9.77;73.09
35489;BME280;21602;55.670;37.578;2022-09-02T06:38:16;98895.59;;;9.85;73.05
35489;BME280;21602;55.670;37.578;2022-09-02T06:40:51;98886.84;;;9.73;73.47
35489;BME280;21602;55.670;37.578;2022-09-02T06:43:23;98894.31;;;9.88;73.70
35489;BME280;21602;55.670;37.578;2022-09-02T06:46:04;98915.03;;;9.97;73.13
35489;BME280;21602;55.670;37.578;2022-09-02T06:48:32;98891.88;;;9.86;73.40
35489;BME280;21602;55.670;37.578;2022-09-02T06:50:58;98913.72;;;10.00;73.88
35489;BME280;21602;55.670;37.578;2022-09-02T06:53:26;98902.66;;;10.08;73.58
35489;BME280;21602;55.670;37.578;2022-09-02T06:55:52;98903.16;;;10.22;73.18
35489;BME280;21602;55.670;37.578;2022-09-02T06:58:19;98894.16;;;10.40;72.99
35489;BME280;21602;55.670;37.578;2022-09-02T07:00:45;98914.78;;;10.44;71.78
35489;BME280;21602;55.670;37.578;2022-09-02T07:03:11;98916.22;;;10.35;70.76
35489;BME280;21602;55.670;37.578;2022-09-02T07:06:08;98925.31;;;10.22;70.22
35489;BME280;21602;55.670;37.578;2022-09-02T07:08:36;98913.56;;;10.23;70.62
35489;BME280;21602;55.670;37.578;2022-09-02T07:11:03;98918.16;;;10.40;70.98
35489;BME280;21602;55.670;37.578;2022-09-02T07:13:30;98911.19;;;10.56;70.44
35489;BME280;21602;55.670;37.578;2022-09-02T07:15:56;98922.97;;;10.76;68.35
35489;BME280;21602;55.670;37.578;2022-09-02T07:18:22;98916.97;;;10.86;69.25
35489;BME280;21602;55.670;37.578;2022-09-02T07:20:48;98924.75;;;10.88;69.01
35489;BME280;21602;55.670;37.578;2022-09-02T07:23:14;98925.75;;;10.65;68.39
35489;BME280;21602;55.670;37.578;2022-09-02T07:25:42;98937.56;;;10.52;68.99
35489;BME280;21602;55.670;37.578;2022-09-02T07:28:10;98945.22;;;10.48;69.21
35489;BME280;21602;55.670;37.578;2022-09-02T07:30:40;98936.66;;;10.63;69.04
35489;BME280;21602;55.670;37.578;2022-09-02T07:33:11;98927.19;;;10.72;68.70
35489;BME280;21602;55.670;37.578;2022-09-02T07:35:39;98929.44;;;10.81;68.60
35489;BME280;21602;55.670;37.578;2022-09-02T07:38:07;98936.91;;;10.79;68.42
35489;BME280;21602;55.670;37.578;2022-09-02T07:40:35;98934.31;;;10.84;68.01
35489;BME280;21602;55.670;37.578;2022-09-02T07:43:03;98939.47;;;10.90;67.80
35489;BME280;21602;55.670;37.578;2022-09-02T07:45:32;98918.97;;;10.96;66.50
35489;BME280;21602;55.670;37.578;2022-09-02T07:47:59;98947.59;;;11.00;66.39
35489;BME280;21602;55.670;37.578;2022-09-02T07:50:26;98930.66;;;10.90;66.26
35489;BME280;21602;55.670;37.578;2022-09-02T07:52:54;98956.53;;;10.89;66.46
35489;BME280;21602;55.670;37.578;2022-09-02T07:55:21;98964.56;;;10.56;67.57
35489;BME280;21602;55.670;37.578;2022-09-02T07:57:49;98959.84;;;10.29;69.05
35489;BME280;21602;55.670;37.578;2022-09-02T08:00:17;98967.41;;;10.20;72.04
35489;BME280;21602;55.670;37.578;2022-09-02T08:02:48;98971.91;;;10.03;71.21
35489;BME280;21602;55.670;37.578;2022-09-02T08:05:20;98963.03;;;9.97;71.15
35489;BME280;21602;55.670;37.578;2022-09-02T08:07:46;98966.25;;;9.99;71.93
35489;BME280;21602;55.670;37.578;2022-09-02T08:10:12;98974.50;;;9.98;71.77
35489;BME280;21602;55.670;37.578;2022-09-02T08:12:40;98956.91;;;9.85;71.80
35489;BME280;21602;55.670;37.578;2022-09-02T08:15:06;98964.88;;;9.97;71.51
35489;BME280;21602;55.670;37.578;2022-09-02T08:17:32;98957.22;;;10.17;71.50
35489;BME280;21602;55.670;37.578;2022-09-02T08:19:58;98958.75;;;10.42;70.08
35489;BME280;21602;55.670;37.578;2022-09-02T08:22:24;98958.13;;;10.68;69.61
35489;BME280;21602;55.670;37.578;2022-09-02T08:24:51;98970.56;;;10.80;68.69
35489;BME280;21602;55.670;37.578;2022-09-02T08:27:17;98994.50;;;10.74;68.44
35489;BME280;21602;55.670;37.578;2022-09-02T08:29:42;98990.44;;;10.72;69.30
35489;BME280;21602;55.670;37.578;2022-09-02T08:32:11;98995.97;;;10.65;69.73
35489;BME280;21602;55.670;37.578;2022-09-02T08:34:38;99005.81;;;10.82;70.05
35489;BME280;21602;55.670;37.578;2022-09-02T08:37:04;99008.34;;;10.88;69.48
35489;BME280;21602;55.670;37.578;2022-09-02T08:39:31;99008.50;;;10.82;70.13
35489;BME280;21602;55.670;37.578;2022-09-02T08:42:05;99023.16;;;10.79;70.46
35489;BME280;21602;55.670;37.578;2022-09-02T08:44:35;99008.50;;;10.65;70.94
35489;BME280;21602;55.670;37.578;2022-09-02T08:47:03;98999.75;;;10.69;71.49
35489;BME280;21602;55.670;37.578;2022-09-02T08:49:37;99010.03;;;10.77;71.25
35489;BME280;21602;55.670;37.578;2022-09-02T08:52:05;99014.41;;;10.67;71.62
35489;BME280;21602;55.670;37.578;2022-09-02T08:54:45;99002.91;;;10.66;70.69
35489;BME280;21602;55.670;37.578;2022-09-02T08:57:13;98990.94;;;10.69;71.32
35489;BME280;21602;55.670;37.578;2022-09-02T08:59:39;99014.75;;;10.87;70.85
35489;BME280;21602;55.670;37.578;2022-09-02T09:07:50;99007.88;;;11.30;69.04
35489;BME280;21602;55.670;37.578;2022-09-02T09:10:32;99017.91;;;11.40;68.60
35489;BME280;21602;55.670;37.578;2022-09-02T09:18:40;99016.34;;;11.83;65.77
35489;BME280;21602;55.670;37.578;2022-09-02T09:21:07;99022.78;;;11.87;64.90
35489;BME280;21602;55.670;37.578;2022-09-02T09:23:37;99035.25;;;11.98;65.67
35489;BME280;21602;55.670;37.578;2022-09-02T09:26:09;99009.97;;;12.11;63.22
35489;BME280;21602;55.670;37.578;2022-09-02T09:28:43;99041.00;;;12.12;61.67
35489;BME280;21602;55.670;37.578;2022-09-02T09:31:12;99032.84;;;12.23;62.60
35489;BME280;21602;55.670;37.578;2022-09-02T09:33:39;99031.22;;;12.22;60.40
35489;BME280;21602;55.670;37.578;2022-09-02T09:36:06;99037.69;;;12.26;61.25
35489;BME280;21602;55.670;37.578;2022-09-02T09:38:33;99049.41;;;12.20;59.94
35489;BME280;21602;55.670;37.578;2022-09-02T09:41:19;99067.06;;;12.21;60.85
35489;BME280;21602;55.670;37.578;2022-09-02T09:43:46;99067.56;;;12.18;61.74
35489;BME280;21602;55.670;37.578;2022-09-02T09:46:29;99072.81;;;12.08;62.15
35489;BME280;21602;55.670;37.578;2022-09-02T09:48:56;99067.34;;;11.98;63.00
35489;BME280;21602;55.670;37.578;2022-09-02T09:51:22;99072.00;;;11.86;63.74
35489;BME280;21602;55.670;37.578;2022-09-02T09:53:49;99072.16;;;12.01;63.87
35489;BME280;21602;55.670;37.578;2022-09-02T10:04:01;99083.94;;;11.61;62.09
35489;BME280;21602;55.670;37.578;2022-09-02T10:12:10;99084.47;;;11.80;60.98
35489;BME280;21602;55.670;37.578;2022-09-02T10:14:43;99064.41;;;11.99;61.99
35489;BME280;21602;55.670;37.578;2022-09-02T10:35:58;99087.28;;;12.88;57.93
35489;BME280;21602;55.670;37.578;2022-09-02T10:38:41;99113.97;;;12.78;58.52
35489;BME280;21602;55.670;37.578;2022-09-02T10:41:17;99119.31;;;12.51;58.72
35489;BME280;21602;55.670;37.578;2022-09-02T10:43:57;99118.59;;;12.34;59.57
35489;BME280;21602;55.670;37.578;2022-09-02T10:46:24;99124.47;;;12.30;60.06
35489;BME280;21602;55.670;37.578;2022-09-02T10:54:42;99146.53;;;11.99;62.36
35489;BME280;21602;55.670;37.578;2022-09-02T10:57:27;99150.69;;;11.90;63.86
35489;BME280;21602;55.670;37.578;2022-09-02T11:00:12;99147.13;;;11.67;65.53
35489;BME280;21602;55.670;37.578;2022-09-02T11:02:54;99159.47;;;11.51;65.76
35489;BME280;21602;55.670;37.578;2022-09-02T11:05:32;99152.28;;;11.35;67.32
35489;BME280;21602;55.670;37.578;2022-09-02T11:11:09;99148.38;;;11.43;67.95
35489;BME280;21602;55.670;37.578;2022-09-02T11:16:45;99162.59;;;11.48;67.70
35489;BME280;21602;55.670;37.578;2022-09-02T11:19:34;99152.50;;;11.50;67.58
35489;BME280;21602;55.670;37.578;2022-09-02T11:22:29;99166.50;;;11.58;67.69
35489;BME280;21602;55.670;37.578;2022-09-02T11:25:18;99156.06;;;11.56;66.97
35489;BME280;21602;55.670;37.578;2022-09-02T11:31:17;99168.50;;;11.67;66.43
35489;BME280;21602;55.670;37.578;2022-09-02T11:36:16;99158.81;;;11.61;66.96
35489;BME280;21602;55.670;37.578;2022-09-02T11:55:42;99182.88;;;12.39;63.27
35489;BME280;21602;55.670;37.578;2022-09-02T11:58:29;99173.25;;;12.60;62.99
35489;BME280;21602;55.670;37.578;2022-09-02T12:03:29;99165.44;;;13.07;62.36
35489;BME280;21602;55.670;37.578;2022-09-02T12:11:05;99173.59;;;12.95;61.14
35489;BME280;21602;55.670;37.578;2022-09-02T12:13:40;99188.34;;;12.93;61.71
35489;BME280;21602;55.670;37.578;2022-09-02T12:21:24;99176.03;;;13.24;62.01
35489;BME280;21602;55.670;37.578;2022-09-02T12:26:28;99173.84;;;13.21;62.07
35489;BME280;21602;55.670;37.578;2022-09-02T12:36:45;99193.25;;;13.28;61.04
35489;BME280;21602;55.670;37.578;2022-09-02T12:50:50;99196.19;;;13.58;57.51
35489;BME280;21602;55.670;37.578;2022-09-02T12:58:22;99202.91;;;13.61;56.33
35489;BME280;21602;55.670;37.578;2022-09-02T13:00:58;99181.31;;;13.46;56.23
35489;BME280;21602;55.670;37.578;2022-09-02T13:03:45;99200.31;;;13.39;55.34
35489;BME280;21602;55.670;37.578;2022-09-02T13:06:26;99191.81;;;13.20;55.08
35489;BME280;21602;55.670;37.578;2022-09-02T13:14:38;99195.19;;;13.38;54.06
35489;BME280;21602;55.670;37.578;2022-09-02T13:23:04;99225.97;;;13.30;54.29
35489;BME280;21602;55.670;37.578;2022-09-02T13:28:15;99271.06;;;13.11;57.31
35489;BME280;21602;55.670;37.578;2022-09-02T13:33:34;99260.03;;;12.42;65.30
35489;BME280;21602;55.670;37.578;2022-09-02T13:36:00;99264.16;;;12.11;66.21
35489;BME280;21602;55.670;37.578;2022-09-02T13:38:28;99263.69;;;11.97;65.83
35489;BME280;21602;55.670;37.578;2022-09-02T13:40:54;99265.16;;;11.88;66.91
35489;BME280;21602;55.670;37.578;2022-09-02T13:43:22;99270.50;;;11.88;66.10
35489;BME280;21602;55.670;37.578;2022-09-02T13:45:50;99260.09;;;11.91;65.51
35489;BME280;21602;55.670;37.578;2022-09-02T13:48:19;99268.06;;;12.03;65.77
35489;BME280;21602;55.670;37.578;2022-09-02T13:50:51;99258.56;;;12.12;64.67
35489;BME280;21602;55.670;37.578;2022-09-02T13:53:33;99265.59;;;12.18;64.33
35489;BME280;21602;55.670;37.578;2022-09-02T13:56:00;99268.47;;;12.12;64.98
35489;BME280;21602;55.670;37.578;2022-09-02T13:58:36;99270.94;;;12.18;65.55
35489;BME280;21602;55.670;37.578;2022-09-02T14:03:53;99275.38;;;12.29;64.75
35489;BME280;21602;55.670;37.578;2022-09-02T14:06:22;99284.00;;;12.32;62.98
35489;BME280;21602;55.670;37.578;2022-09-02T14:08:54;99271.22;;;12.39;62.75
35489;BME280;21602;55.670;37.578;2022-09-02T14:11:22;99277.56;;;12.49;62.48
35489;BME280;21602;55.670;37.578;2022-09-02T14:13:49;99279.72;;;12.52;60.92
35489;BME280;21602;55.670;37.578;2022-09-02T14:21:46;99267.28;;;12.63;59.26
35489;BME280;21602;55.670;37.578;2022-09-02T14:24:16;99287.06;;;12.62;59.35
35489;BME280;21602;55.670;37.578;2022-09-02T14:26:46;99292.38;;;12.57;59.90
35489;BME280;21602;55.670;37.578;2022-09-02T14:29:17;99283.84;;;12.60;59.43
35489;BME280;21602;55.670;37.578;2022-09-02T14:32:12;99294.88;;;12.64;59.53
35489;BME280;21602;55.670;37.578;2022-09-02T14:34:46;99317.94;;;12.48;63.85
35489;BME280;21602;55.670;37.578;2022-09-02T14:37:24;99308.44;;;11.85;67.45
35489;BME280;21602;55.670;37.578;2022-09-02T14:40:06;99316.19;;;11.41;69.21
35489;BME280;21602;55.670;37.578;2022-09-02T14:42:50;99311.78;;;11.06;70.72
35489;BME280;21602;55.670;37.578;2022-09-02T14:45:33;99314.66;;;10.88;70.41
35489;BME280;21602;55.670;37.578;2022-09-02T14:48:02;99312.78;;;10.76;70.84
35489;BME280;21602;55.670;37.578;2022-09-02T14:50:35;99313.50;;;10.84;71.22
35489;BME280;21602;55.670;37.578;2022-09-02T14:53:06;99306.63;;;10.88;70.81
35489;BME280;21602;55.670;37.578;2022-09-02T14:55:44;99306.94;;;11.03;70.99
35489;BME280;21602;55.670;37.578;2022-09-02T14:58:10;99309.78;;;11.13;71.06
35489;BME280;21602;55.670;37.578;2022-09-02T15:00:36;99310.56;;;11.25;70.01
35489;BME280;21602;55.670;37.578;2022-09-02T15:03:04;99298.91;;;11.32;68.76
35489;BME280;21602;55.670;37.578;2022-09-02T15:05:31;99310.59;;;11.42;68.08
35489;BME280;21602;55.670;37.578;2022-09-02T15:07:59;99314.75;;;11.50;67.65
35489;BME280;21602;55.670;37.578;2022-09-02T15:10:28;99304.16;;;11.55;66.92
35489;BME280;21602;55.670;37.578;2022-09-02T15:12:55;99313.22;;;11.54;65.68
35489;BME280;21602;55.670;37.578;2022-09-02T15:15:22;99316.47;;;11.56;66.12
35489;BME280;21602;55.670;37.578;2022-09-02T15:17:49;99316.94;;;11.53;66.23
35489;BME280;21602;55.670;37.578;2022-09-02T15:20:15;99316.94;;;11.53;66.42
35489;BME280;21602;55.670;37.578;2022-09-02T15:22:41;99326.09;;;11.57;66.47
35489;BME280;21602;55.670;37.578;2022-09-02T15:25:08;99325.53;;;11.55;66.40
35489;BME280;21602;55.670;37.578;2022-09-02T15:27:35;99328.78;;;11.57;66.67
35489;BME280;21602;55.670;37.578;2022-09-02T15:30:02;99322.16;;;11.60;66.80
35489;BME280;21602;55.670;37.578;2022-09-02T15:32:29;99337.13;;;11.61;67.03